Time;durP1;ratioP1;P1;durP2;ratioP2;P2;SDS_P1;SDS_P2;PMS_P1;PMS_P2;Temp;Humidity;BMP_temperature;BMP_pressure;BME280_temperature;BME280_humidity;BME280_pressure;Samples;Min_cycle;Max_cycle;Signal;HPM_P1;HPM_P2
2022/03/08 00:01:32;;;;;;;32.03;16.33;;;-0.70;62.40;;;;;;5068630;28;20794;-53
2022/03/08 00:03:58;;;;;;;32.25;17.02;;;-0.90;63.80;;;;;;5068837;28;20885;-53
2022/03/08 00:06:26;;;;;;;28.27;15.73;;;-0.90;66.50;;;;;;5069139;28;20387;-53
2022/03/08 00:08:51;;;;;;;31.33;15.77;;;-1.10;67.70;;;;;;5068512;28;20376;-53
2022/03/08 00:11:17;;;;;;;29.90;16.23;;;-1.20;67.90;;;;;;5071867;28;20380;-53
2022/03/08 00:13:44;;;;;;;35.73;17.27;;;0.40;70.70;;;;;;5071505;28;20395;-53
2022/03/08 00:16:09;;;;;;;31.67;15.10;;;-1.20;70.70;;;;;;5072597;28;20454;-53
2022/03/08 00:18:38;;;;;;;32.97;16.17;;;-1.30;70.70;;;;;;5071959;28;20407;-53
2022/03/08 00:21:05;;;;;;;29.70;15.57;;;-1.40;71.40;;;;;;5072342;28;20530;-53
2022/03/08 00:23:31;;;;;;;36.10;16.70;;;0.20;73.20;;;;;;5071034;28;20515;-53
2022/03/08 00:25:59;;;;;;;31.20;16.63;;;-1.40;71.50;;;;;;5061832;28;20388;-53
2022/03/08 00:28:26;;;;;;;31.27;16.13;;;-1.40;72.50;;;;;;5071690;28;20382;-54
2022/03/08 00:31:25;;;;;;;29.83;15.82;;;-0.10;74.50;;;;;;5071359;28;20392;-54
2022/03/08 00:33:51;;;;;;;30.67;15.52;;;-1.50;73.60;;;;;;5071341;28;20444;-53
2022/03/08 00:36:17;;;;;;;33.40;16.33;;;0.60;75.40;;;;;;5072177;28;20780;-53
2022/03/08 00:38:43;;;;;;;32.67;16.15;;;-1.50;72.90;;;;;;5071129;28;20489;-53
2022/03/08 00:41:09;;;;;;;33.25;16.60;;;-1.50;72.40;;;;;;5071997;28;20865;-53
2022/03/08 00:43:34;;;;;;;30.17;15.68;;;-1.40;72.90;;;;;;5071199;28;20408;-53
2022/03/08 00:46:01;;;;;;;32.50;16.20;;;-1.30;73.50;;;;;;5071703;28;20868;-53
2022/03/08 00:51:08;;;;;;;30.45;15.77;;;-1.20;72.90;;;;;;5324940;22;20420;-53
2022/03/08 00:53:34;;;;;;;27.83;14.57;;;-0.90;72.60;;;;;;5057895;28;20457;-54
2022/03/08 00:56:00;;;;;;;24.60;13.10;;;-0.80;71.90;;;;;;5065917;28;20934;-53
2022/03/08 00:58:25;;;;;;;26.85;13.75;;;-0.80;71.60;;;;;;5052028;28;20846;-53
2022/03/08 01:00:51;;;;;;;25.67;13.57;;;-0.80;71.10;;;;;;5050790;28;20863;-54
2022/03/08 01:03:17;;;;;;;25.10;12.90;;;-0.80;71.20;;;;;;5051215;28;20676;-53
2022/03/08 01:05:42;;;;;;;25.97;13.50;;;-0.80;70.80;;;;;;5050714;28;20386;-53
2022/03/08 01:08:09;;;;;;;27.40;13.60;;;-0.10;72.00;;;;;;5051335;28;20839;-53
2022/03/08 01:10:35;;;;;;;25.35;13.43;;;-0.80;71.50;;;;;;5050822;28;20378;-53
2022/03/08 01:13:01;;;;;;;26.02;14.00;;;-0.90;71.20;;;;;;5051529;28;20408;-53
2022/03/08 01:15:27;;;;;;;22.20;12.00;;;-0.90;71.30;;;;;;5051160;28;20735;-54
2022/03/08 01:17:54;;;;;;;24.73;12.77;;;-1.10;71.10;;;;;;5051398;28;20381;-53
2022/03/08 01:20:20;;;;;;;24.52;13.48;;;-0.30;72.50;;;;;;5051063;28;20839;-53
2022/03/08 01:22:47;;;;;;;22.38;12.30;;;-1.20;71.60;;;;;;5049455;28;20431;-53
2022/03/08 01:25:15;;;;;;;25.48;12.77;;;-1.20;72.20;;;;;;5051277;28;20409;-53
2022/03/08 01:27:41;;;;;;;24.60;13.10;;;-1.20;73.20;;;;;;5050496;28;20406;-53
2022/03/08 01:30:10;;;;;;;24.38;13.02;;;-1.20;73.30;;;;;;5051275;28;20870;-53
2022/03/08 01:32:35;;;;;;;25.50;12.82;;;-1.20;73.00;;;;;;5050648;28;20851;-53
2022/03/08 01:35:01;;;;;;;26.70;13.00;;;-1.20;73.90;;;;;;5051087;28;20468;-53
2022/03/08 01:37:27;;;;;;;24.92;12.15;;;-1.40;75.40;;;;;;5053705;28;20481;-54
2022/03/08 01:39:52;;;;;;;22.83;12.50;;;-1.40;75.50;;;;;;5058853;28;20456;-53
2022/03/08 01:42:22;;;;;;;27.67;13.20;;;-1.50;75.80;;;;;;5050911;28;20386;-53
2022/03/08 01:44:48;;;;;;;25.33;12.43;;;-1.50;76.30;;;;;;5050176;28;20432;-53
2022/03/08 01:47:19;;;;;;;22.95;12.52;;;0.20;77.80;;;;;;5050647;28;20725;-53
2022/03/08 01:49:46;;;;;;;22.75;12.40;;;-1.50;76.90;;;;;;5049796;28;20437;-53
2022/03/08 01:52:12;;;;;;;22.23;12.00;;;-1.40;77.30;;;;;;5050845;28;20374;-53
2022/03/08 01:54:38;;;;;;;23.05;11.50;;;-1.40;77.00;;;;;;5050050;28;20432;-53
2022/03/08 01:57:04;;;;;;;22.98;12.80;;;-1.30;76.80;;;;;;5050589;28;20435;-53
2022/03/08 01:59:31;;;;;;;25.43;12.30;;;-1.50;77.60;;;;;;5050266;28;20378;-54
2022/03/08 02:01:56;;;;;;;23.13;12.10;;;-1.50;77.90;;;;;;5050425;28;20416;-53
2022/03/08 02:04:22;;;;;;;24.65;12.85;;;-1.50;78.50;;;;;;5050685;28;20441;-53
2022/03/08 02:06:48;;;;;;;21.30;12.40;;;-1.60;78.60;;;;;;5049514;28;20415;-53
2022/03/08 02:09:14;;;;;;;23.63;11.88;;;-1.70;80.30;;;;;;5050569;28;20377;-54
2022/03/08 02:11:41;;;;;;;21.48;12.52;;;-1.80;80.60;;;;;;5059136;28;20466;-53
2022/03/08 02:14:06;;;;;;;22.27;12.25;;;-1.80;82.10;;;;;;5055217;28;20392;-53
2022/03/08 02:16:32;;;;;;;23.33;11.90;;;0.10;84.50;;;;;;5064911;28;20385;-56
2022/03/08 02:18:58;;;;;;;24.92;12.38;;;-1.90;83.30;;;;;;5050309;28;20392;-53
2022/03/08 02:21:25;;;;;;;23.50;11.55;;;-1.80;83.70;;;;;;5048707;28;20389;-53
2022/03/08 02:23:51;;;;;;;25.63;13.68;;;-1.90;83.70;;;;;;5049405;28;20402;-56
2022/03/08 02:26:19;;;;;;;26.48;13.05;;;-2.10;84.70;;;;;;5049880;28;20531;-55
2022/03/08 02:28:47;;;;;;;25.75;13.43;;;-1.90;85.50;;;;;;5049623;28;20470;-55
2022/03/08 02:31:13;;;;;;;28.52;13.25;;;-2.30;86.60;;;;;;5049740;28;20444;-55
2022/03/08 02:33:38;;;;;;;28.92;13.90;;;-2.40;88.40;;;;;;5050865;28;20890;-55
2022/03/08 02:36:06;;;;;;;29.45;13.60;;;-2.50;89.80;;;;;;5057810;28;20384;-55
2022/03/08 02:38:31;;;;;;;24.05;12.65;;;-2.60;90.30;;;;;;5065809;28;20425;-56
2022/03/08 02:40:57;;;;;;;27.70;13.02;;;-2.70;90.90;;;;;;5069378;28;20480;-55
2022/03/08 02:43:22;;;;;;;24.30;11.90;;;-2.70;91.40;;;;;;5069244;28;20392;-55
2022/03/08 02:45:48;;;;;;;27.80;13.17;;;-2.60;91.50;;;;;;5067389;28;20746;-54
2022/03/08 02:48:14;;;;;;;25.83;12.65;;;-2.60;91.40;;;;;;5069697;28;20887;-54
2022/03/08 02:50:40;;;;;;;24.38;12.25;;;-2.60;91.50;;;;;;5068997;28;20476;-53
2022/03/08 02:53:05;;;;;;;24.15;12.63;;;-2.60;91.70;;;;;;5070078;28;20437;-56
2022/03/08 02:55:33;;;;;;;28.63;14.07;;;-2.60;92.30;;;;;;5069298;28;20936;-57
2022/03/08 02:57:59;;;;;;;23.30;11.90;;;-2.60;91.80;;;;;;5069978;28;20392;-56
2022/03/08 03:00:26;;;;;;;25.73;12.65;;;-2.60;91.70;;;;;;5069739;28;20415;-56
2022/03/08 03:02:52;;;;;;;23.97;11.63;;;-2.60;91.80;;;;;;5069058;28;20844;-56
2022/03/08 03:05:18;;;;;;;27.67;13.57;;;-2.60;91.90;;;;;;5069880;28;20503;-56
2022/03/08 03:07:44;;;;;;;24.70;12.27;;;-2.60;91.80;;;;;;5068867;28;20471;-56
2022/03/08 03:10:12;;;;;;;26.30;12.27;;;-2.60;91.70;;;;;;5069467;28;20384;-56
2022/03/08 03:12:38;;;;;;;24.83;12.00;;;-2.60;91.80;;;;;;5068829;28;20845;-56
2022/03/08 03:15:06;;;;;;;24.05;12.80;;;-2.60;91.80;;;;;;5069703;28;20376;-56
2022/03/08 03:17:32;;;;;;;23.58;12.60;;;-2.60;92.10;;;;;;5068652;28;20728;-57
2022/03/08 03:19:58;;;;;;;26.42;12.70;;;-2.50;92.20;;;;;;5069716;28;20392;-55
2022/03/08 03:22:24;;;;;;;25.08;11.55;;;-2.50;92.20;;;;;;5069409;28;20367;-55
2022/03/08 03:24:50;;;;;;;25.05;12.45;;;-2.60;92.20;;;;;;5068437;28;21003;-55
2022/03/08 03:27:15;;;;;;;26.08;12.38;;;-1.10;94.20;;;;;;5062270;28;20389;-55
2022/03/08 03:29:41;;;;;;;23.97;13.40;;;-0.60;94.80;;;;;;5066531;28;20379;-55
2022/03/08 03:32:07;;;;;;;26.57;12.37;;;-2.70;94.20;;;;;;5051877;28;20405;-55
2022/03/08 03:34:33;;;;;;;25.65;12.70;;;-2.60;94.20;;;;;;5068530;28;20399;-57
2022/03/08 03:36:58;;;;;;;27.30;12.10;;;-3.40;93.90;;;;;;5049738;28;20855;-55
2022/03/08 03:39:24;;;;;;;25.42;11.90;;;-2.30;94.10;;;;;;5049038;28;20385;-55
2022/03/08 03:41:50;;;;;;;22.50;12.20;;;-2.30;93.70;;;;;;5048798;28;20438;-55
2022/03/08 03:44:15;;;;;;;25.50;12.50;;;-2.20;93.20;;;;;;5048867;28;20424;-55
2022/03/08 03:46:41;;;;;;;23.05;11.80;;;-2.30;93.10;;;;;;5052447;28;20385;-56
2022/03/08 03:49:07;;;;;;;24.75;12.30;;;-2.40;92.80;;;;;;5053201;28;20843;-55
2022/03/08 03:51:32;;;;;;;23.50;12.27;;;-0.90;93.60;;;;;;5052524;28;20426;-56
2022/03/08 03:53:58;;;;;;;22.40;11.70;;;-2.40;93.20;;;;;;5053017;28;20417;-55
2022/03/08 03:56:24;;;;;;;21.58;11.85;;;-2.30;93.10;;;;;;5052870;28;20381;-55
2022/03/08 03:58:49;;;;;;;22.30;11.15;;;-2.20;93.00;;;;;;5052151;28;20369;-55
2022/03/08 04:01:15;;;;;;;22.15;11.15;;;-2.00;92.70;;;;;;5052971;28;20393;-55
2022/03/08 04:03:41;;;;;;;29.43;11.90;;;-1.90;92.40;;;;;;5052204;28;20413;-55
2022/03/08 04:06:07;;;;;;;22.67;11.52;;;-1.80;92.10;;;;;;5053175;28;20846;-56
2022/03/08 04:08:34;;;;;;;22.63;11.50;;;-1.70;92.00;;;;;;5052211;28;20397;-56
2022/03/08 04:10:59;;;;;;;23.00;11.35;;;-2.00;91.30;;;;;;5053045;28;20381;-57
2022/03/08 04:13:25;;;;;;;21.25;11.55;;;-2.20;91.40;;;;;;5052773;28;20377;-55
2022/03/08 04:15:52;;;;;;;22.42;11.52;;;-2.40;91.70;;;;;;5052066;28;20977;-55
2022/03/08 04:18:18;;;;;;;26.17;12.40;;;-2.50;92.30;;;;;;5067996;28;20758;-55
2022/03/08 04:20:44;;;;;;;25.02;12.70;;;-2.60;92.70;;;;;;5051779;28;20404;-55
2022/03/08 04:23:10;;;;;;;26.02;11.30;;;-2.70;93.50;;;;;;5052772;28;20390;-55
2022/03/08 04:25:36;;;;;;;23.73;12.35;;;-2.70;93.80;;;;;;5051348;28;20496;-55
2022/03/08 04:28:03;;;;;;;24.42;11.90;;;-2.80;94.20;;;;;;5052362;28;20443;-55
2022/03/08 04:30:29;;;;;;;26.45;12.38;;;-2.80;94.70;;;;;;5052299;28;20377;-55
2022/03/08 04:32:55;;;;;;;23.33;12.40;;;-2.80;95.10;;;;;;5051806;28;20384;-55
2022/03/08 04:35:21;;;;;;;26.60;12.73;;;-2.50;95.30;;;;;;5056258;28;20396;-55
2022/03/08 04:37:47;;;;;;;24.27;11.80;;;-2.30;94.90;;;;;;5065361;28;20737;-55
2022/03/08 04:40:13;;;;;;;28.63;13.30;;;-2.30;94.30;;;;;;5052313;28;20374;-55
2022/03/08 04:42:40;;;;;;;26.20;12.30;;;-2.60;94.40;;;;;;5054291;28;20756;-56
2022/03/08 04:45:07;;;;;;;24.20;12.43;;;-2.70;94.90;;;;;;5071991;28;20494;-56
2022/03/08 04:47:35;;;;;;;24.15;12.50;;;-2.80;95.40;;;;;;5071917;28;20384;-56
2022/03/08 04:50:02;;;;;;;23.20;12.70;;;-2.70;95.70;;;;;;5069287;28;20422;-55
2022/03/08 04:52:28;;;;;;;28.23;12.70;;;-3.20;96.30;;;;;;5071030;28;20379;-55
2022/03/08 04:54:54;;;;;;;26.07;12.33;;;-3.10;96.80;;;;;;5070802;28;20986;-55
2022/03/08 04:57:20;;;;;;;25.40;12.07;;;-3.00;97.40;;;;;;5070965;28;20422;-55
2022/03/08 04:59:45;;;;;;;23.52;12.02;;;-2.80;97.50;;;;;;5070127;28;20476;-55
2022/03/08 05:02:11;;;;;;;20.13;10.70;;;-2.40;97.40;;;;;;5070802;28;20410;-55
2022/03/08 05:04:36;;;;;;;22.73;11.40;;;-1.00;97.50;;;;;;5069277;28;20465;-56
2022/03/08 05:07:02;;;;;;;27.80;14.53;;;-0.60;96.80;;;;;;5071464;28;20384;-56
2022/03/08 05:09:28;;;;;;;21.87;11.87;;;-2.30;95.60;;;;;;5060420;28;20488;-55
2022/03/08 05:11:54;;;;;;;22.08;11.40;;;-2.10;95.30;;;;;;5064951;28;20931;-55
2022/03/08 05:14:19;;;;;;;24.35;12.43;;;-2.10;94.90;;;;;;5070275;28;20475;-56
2022/03/08 05:16:45;;;;;;;24.38;12.20;;;-2.20;94.40;;;;;;5064286;28;20440;-55
2022/03/08 05:19:10;;;;;;;24.90;12.30;;;-2.30;94.70;;;;;;5057072;28;20386;-55
2022/03/08 05:21:36;;;;;;;25.00;12.57;;;-2.40;95.80;;;;;;5061573;28;20869;-56
2022/03/08 05:24:02;;;;;;;27.95;12.82;;;-2.60;96.70;;;;;;5067860;28;20875;-55
2022/03/08 05:26:28;;;;;;;26.90;13.10;;;-2.70;97.20;;;;;;5051586;28;20389;-55
2022/03/08 05:28:53;;;;;;;23.43;10.80;;;-2.60;97.50;;;;;;5050587;28;20468;-55
2022/03/08 05:31:19;;;;;;;22.60;11.60;;;-2.70;97.50;;;;;;5064205;28;20387;-55
2022/03/08 05:33:44;;;;;;;28.73;12.77;;;-2.60;97.50;;;;;;5070137;28;20774;-55
2022/03/08 05:36:10;;;;;;;22.55;11.45;;;-1.20;97.70;;;;;;5070904;28;20436;-55
2022/03/08 05:38:36;;;;;;;26.23;12.53;;;-2.70;96.70;;;;;;5070131;28;20396;-56
2022/03/08 05:41:01;;;;;;;21.88;11.40;;;-2.70;97.10;;;;;;5070494;28;20745;-55
2022/03/08 05:43:28;;;;;;;25.42;11.77;;;-1.60;97.90;;;;;;5070778;28;20761;-55
2022/03/08 05:45:53;;;;;;;23.33;11.73;;;-2.70;97.30;;;;;;5068587;28;20390;-55
2022/03/08 05:48:19;;;;;;;20.85;10.65;;;-2.00;97.40;;;;;;5070455;28;20384;-55
2022/03/08 05:50:44;;;;;;;22.75;11.10;;;-2.70;97.40;;;;;;5069649;28;20924;-55
2022/03/08 05:53:10;;;;;;;22.43;10.20;;;-2.60;97.20;;;;;;5070299;28;20860;-55
2022/03/08 05:55:36;;;;;;;20.23;10.60;;;-2.40;97.20;;;;;;5069911;28;20391;-56
2022/03/08 05:58:02;;;;;;;20.80;10.25;;;-2.30;96.60;;;;;;5064610;28;20401;-56
2022/03/08 06:00:28;;;;;;;23.55;10.90;;;-2.20;96.10;;;;;;5058101;28;20519;-55
2022/03/08 06:02:54;;;;;;;19.17;10.90;;;-2.10;95.60;;;;;;5054420;28;20463;-55
2022/03/08 06:05:22;;;;;;;22.00;11.87;;;-2.20;95.10;;;;;;5069606;28;20415;-55
2022/03/08 06:07:48;;;;;;;25.60;12.25;;;-2.30;95.20;;;;;;5068292;28;20384;-55
2022/03/08 06:10:14;;;;;;;25.63;12.10;;;-2.30;95.60;;;;;;5059164;28;20400;-55
2022/03/08 06:12:41;;;;;;;27.92;13.75;;;-2.30;96.00;;;;;;5068360;28;20411;-57
2022/03/08 06:15:08;;;;;;;25.10;12.30;;;-2.30;96.30;;;;;;5069481;28;20388;-56
2022/03/08 06:17:34;;;;;;;23.00;12.20;;;-2.30;96.80;;;;;;5063498;28;20437;-56
2022/03/08 06:20:00;;;;;;;24.92;12.38;;;-2.30;97.10;;;;;;5069474;28;20396;-55
2022/03/08 06:22:25;;;;;;;23.90;12.70;;;-2.20;97.40;;;;;;5069962;28;20474;-55
2022/03/08 06:24:51;;;;;;;24.07;12.30;;;-2.10;97.60;;;;;;5069253;28;20559;-53
2022/03/08 06:27:16;;;;;;;21.77;11.02;;;-1.80;98.10;;;;;;5070126;28;20387;-53
2022/03/08 06:29:42;;;;;;;21.30;11.60;;;-0.30;98.70;;;;;;5068635;28;20387;-53
2022/03/08 06:32:08;;;;;;;18.90;10.23;;;0.20;95.50;;;;;;5069808;28;20871;-54
2022/03/08 06:34:34;;;;;;;20.17;11.45;;;1.40;92.30;;;;;;5069880;28;20407;-56
2022/03/08 06:37:00;;;;;;;22.00;11.73;;;3.50;89.30;;;;;;5067619;28;20489;-57
2022/03/08 06:39:25;;;;;;;22.13;12.10;;;3.50;83.60;;;;;;5069145;28;20772;-54
2022/03/08 06:41:51;;;;;;;24.65;12.98;;;3.80;78.80;;;;;;5069538;28;20379;-54
2022/03/08 06:44:17;;;;;;;25.83;14.30;;;4.70;74.70;;;;;;5052246;28;20758;-54
2022/03/08 06:46:44;;;;;;;23.88;14.10;;;5.30;70.20;;;;;;5047341;28;20890;-54
2022/03/08 06:49:10;;;;;;;29.50;15.35;;;6.20;66.00;;;;;;5049596;28;20472;-54
2022/03/08 06:51:37;;;;;;;24.90;14.40;;;6.70;61.70;;;;;;5048183;28;20500;-55
2022/03/08 06:54:06;;;;;;;24.45;14.38;;;7.10;59.10;;;;;;5048685;28;20479;-54
2022/03/08 06:56:36;;;;;;;23.23;14.52;;;7.50;57.40;;;;;;5049727;28;20465;-57
2022/03/08 06:59:02;;;;;;;25.75;15.38;;;7.50;56.50;;;;;;5049356;28;20870;-55
2022/03/08 07:01:28;;;;;;;30.27;16.25;;;7.80;56.10;;;;;;5049516;28;20380;-55
2022/03/08 07:03:54;;;;;;;27.23;18.03;;;8.90;55.40;;;;;;5054167;28;21149;-55
2022/03/08 07:06:19;;;;;;;26.55;16.00;;;10.20;51.10;;;;;;5059087;28;20405;-53
2022/03/08 07:08:45;;;;;;;20.30;17.30;;;10.80;47.50;;;;;;5059723;28;20784;-53
2022/03/08 07:11:11;;;;;;;18.70;12.32;;;11.70;47.80;;;;;;5069352;28;20415;-56
2022/03/08 07:13:37;;;;;;;17.40;11.13;;;12.20;59.10;;;;;;5068391;28;20425;-57
2022/03/08 07:16:03;;;;;;;17.48;11.40;;;11.80;67.10;;;;;;5066770;28;20407;-56
2022/03/08 07:18:29;;;;;;;17.10;11.07;;;12.40;65.90;;;;;;5061851;28;20392;-56
2022/03/08 07:20:54;;;;;;;19.60;17.38;;;12.10;65.70;;;;;;5051144;28;20480;-56
2022/03/08 07:23:20;;;;;;;19.00;17.10;;;;;;;;;;5062765;28;20473;-56
2022/03/08 07:25:46;;;;;;;19.92;17.92;;;13.00;76.10;;;;;;5053126;28;20516;-56
2022/03/08 07:28:12;;;;;;;19.50;16.83;;;;;;;;;;5068936;28;20868;-56
2022/03/08 07:30:38;;;;;;;20.98;18.67;;;;;;;;;;5060020;28;20391;-54
2022/03/08 07:33:04;;;;;;;20.35;17.40;;;;;;;;;;5073290;28;20875;-53
2022/03/08 07:35:30;;;;;;;25.65;23.25;;;;;;;;;;5073125;28;20383;-56
2022/03/08 07:37:56;;;;;;;20.42;15.30;;;12.70;75.90;;;;;;5072539;28;20368;-56
2022/03/08 07:40:22;;;;;;;18.58;16.58;;;;;;;;;;5073155;28;20437;-56
2022/03/08 07:42:48;;;;;;;20.98;18.77;;;12.90;74.20;;;;;;5071342;28;20853;-56
2022/03/08 07:45:14;;;;;;;19.67;13.18;;;13.30;36.50;;;;;;5072988;28;20418;-56
2022/03/08 07:47:39;;;;;;;16.80;11.15;;;13.40;36.40;;;;;;5072518;28;20371;-58
2022/03/08 07:50:06;;;;;;;18.53;15.50;;;13.30;36.70;;;;;;5072722;28;20411;-56
2022/03/08 07:52:32;;;;;;;17.55;14.05;;;13.60;36.00;;;;;;5072549;28;20426;-56
2022/03/08 07:54:57;;;;;;;16.30;12.80;;;13.80;35.60;;;;;;5072287;28;20422;-56
2022/03/08 07:57:23;;;;;;;15.63;11.17;;;14.80;34.20;;;;;;5072918;28;20418;-56
2022/03/08 07:59:49;;;;;;;19.53;12.80;;;14.90;33.90;;;;;;5071932;28;20379;-56
2022/03/08 08:02:14;;;;;;;19.40;13.25;;;14.70;35.20;;;;;;5067893;28;20529;-56
2022/03/08 08:04:40;;;;;;;19.88;13.02;;;15.00;33.90;;;;;;5063757;28;20881;-57
2022/03/08 08:07:06;;;;;;;20.13;12.80;;;15.30;33.40;;;;;;5068004;28;20389;-56
2022/03/08 08:09:33;;;;;;;16.50;12.00;;;15.40;33.20;;;;;;5052889;28;20742;-56
2022/03/08 08:11:59;;;;;;;19.05;12.45;;;14.70;33.20;;;;;;5051980;28;20514;-56
2022/03/08 08:14:25;;;;;;;19.63;11.70;;;14.50;34.10;;;;;;5060114;28;20534;-56
2022/03/08 08:16:50;;;;;;;20.98;14.00;;;14.00;34.30;;;;;;5071547;28;20455;-56
2022/03/08 08:19:16;;;;;;;18.88;13.20;;;13.60;35.20;;;;;;5057583;28;20381;-56
2022/03/08 08:21:43;;;;;;;20.25;14.13;;;14.20;35.80;;;;;;5051500;28;20389;-56
2022/03/08 08:24:08;;;;;;;20.90;13.17;;;14.20;34.70;;;;;;5052016;28;20405;-56
2022/03/08 08:26:34;;;;;;;18.60;12.90;;;14.70;34.90;;;;;;5052307;28;20742;-56
2022/03/08 08:29:01;;;;;;;17.90;13.70;;;15.10;34.50;;;;;;5052200;28;21175;-56
2022/03/08 08:31:28;;;;;;;16.90;13.60;;;15.50;34.10;;;;;;5061050;28;20926;-56
2022/03/08 08:33:54;;;;;;;15.13;12.55;;;16.50;33.40;;;;;;5051762;28;20443;-56
2022/03/08 08:36:20;;;;;;;15.73;12.90;;;16.90;32.20;;;;;;5066905;28;20399;-54
2022/03/08 08:38:46;;;;;;;13.57;10.10;;;17.30;31.70;;;;;;5071482;28;20952;-53
2022/03/08 08:41:11;;;;;;;18.75;16.80;;;16.40;31.00;;;;;;5070240;28;20388;-56
2022/03/08 08:43:37;;;;;;;17.98;16.10;;;14.90;32.20;;;;;;5071655;28;20376;-57
2022/03/08 08:46:03;;;;;;;17.57;15.60;;;14.50;33.60;;;;;;5071077;28;20391;-56
2022/03/08 08:48:29;;;;;;;18.40;15.40;;;14.50;33.60;;;;;;5070722;28;20394;-56
2022/03/08 08:50:55;;;;;;;16.33;13.73;;;14.70;34.10;;;;;;5070728;28;20906;-56
2022/03/08 08:53:22;;;;;;;15.00;13.40;;;14.80;33.40;;;;;;5071810;28;20384;-57
2022/03/08 08:55:48;;;;;;;17.80;16.00;;;14.50;33.40;;;;;;5071114;28;20853;-56
2022/03/08 08:58:14;;;;;;;17.88;15.98;;;14.90;34.30;;;;;;5071676;28;20380;-56
2022/03/08 09:00:40;;;;;;;19.57;16.53;;;14.60;33.80;;;;;;5070384;28;20398;-58
2022/03/08 09:03:14;;;;;;;18.75;16.85;;;14.80;34.00;;;;;;5063750;28;20524;-57
2022/03/08 09:05:44;;;;;;;17.50;15.70;;;14.90;33.60;;;;;;5071323;28;20461;-58
2022/03/08 09:08:10;;;;;;;16.00;14.35;;;15.30;34.00;;;;;;5071315;28;20459;-56
2022/03/08 09:10:36;;;;;;;17.55;15.55;;;14.80;33.20;;;;;;5071638;28;20379;-54
2022/03/08 09:13:02;;;;;;;17.63;14.30;;;13.50;34.40;;;;;;5070684;28;20376;-54
2022/03/08 09:15:28;;;;;;;17.35;13.63;;;13.30;34.80;;;;;;5071785;28;20406;-56
2022/03/08 09:17:53;;;;;;;17.33;13.70;;;14.50;35.50;;;;;;5070647;28;20845;-56
2022/03/08 09:20:19;;;;;;;16.15;14.02;;;14.90;33.50;;;;;;5071503;28;20395;-56
2022/03/08 09:22:45;;;;;;;16.37;13.40;;;14.90;33.80;;;;;;5070296;28;20383;-54
2022/03/08 09:25:11;;;;;;;15.95;13.80;;;13.30;34.70;;;;;;5071325;28;20427;-54
2022/03/08 09:27:36;;;;;;;17.20;13.60;;;13.80;35.40;;;;;;5071198;28;20429;-55
2022/03/08 09:30:08;;;;;;;17.25;14.60;;;13.80;34.50;;;;;;5070166;28;20470;-54
2022/03/08 09:32:34;;;;;;;16.75;14.95;;;14.50;35.50;;;;;;5071166;28;20391;-56
2022/03/08 09:35:02;;;;;;;16.30;14.30;;;14.50;34.20;;;;;;5069450;28;20453;-54
2022/03/08 09:37:28;;;;;;;16.00;14.30;;;14.10;34.50;;;;;;5069160;28;20462;-56
2022/03/08 09:39:53;;;;;;;20.50;16.60;;;13.80;35.30;;;;;;5070206;28;20410;-55
2022/03/08 09:42:20;;;;;;;15.83;14.17;;;13.80;34.90;;;;;;5069921;28;20416;-55
2022/03/08 09:44:48;;;;;;;18.45;14.82;;;14.20;34.80;;;;;;5069975;28;20468;-55
2022/03/08 09:47:15;;;;;;;16.23;14.63;;;14.70;33.90;;;;;;5070722;28;20427;-55
2022/03/08 09:49:41;;;;;;;15.15;13.65;;;14.50;33.60;;;;;;5070056;28;20387;-56
2022/03/08 09:52:06;;;;;;;13.70;12.30;;;14.40;33.50;;;;;;5070812;28;20399;-55
2022/03/08 09:54:32;;;;;;;14.25;12.85;;;13.60;33.00;;;;;;5070150;28;20453;-55
2022/03/08 09:56:58;;;;;;;15.00;13.40;;;13.30;34.20;;;;;;5069782;28;20384;-55
2022/03/08 09:59:29;;;;;;;14.10;12.60;;;13.10;34.30;;;;;;5070603;28;20784;-55
2022/03/08 10:01:55;;;;;;;14.10;12.60;;;13.10;34.40;;;;;;5069639;28;20418;-56
2022/03/08 10:04:21;;;;;;;13.20;11.80;;;13.40;33.90;;;;;;5070287;28;20852;-55
2022/03/08 10:06:51;;;;;;;17.23;12.20;;;13.30;33.90;;;;;;5069754;28;20387;-55
2022/03/08 10:09:19;;;;;;;14.93;12.32;;;13.20;34.10;;;;;;5069101;28;20828;-55
2022/03/08 10:11:53;;;;;;;13.13;11.83;;;13.80;34.20;;;;;;5069575;28;20470;-56
2022/03/08 10:14:39;;;;;;;12.23;10.90;;;14.10;33.50;;;;;;5068838;28;20810;-56
2022/03/08 10:17:31;;;;;;;13.60;12.17;;;13.60;32.40;;;;;;5069742;28;20395;-56
2022/03/08 10:19:56;;;;;;;14.07;12.57;;;12.60;32.70;;;;;;5069214;28;20392;-55
2022/03/08 10:22:31;;;;;;;10.90;6.20;;;12.10;33.70;;;;;;5069857;28;20399;-55
2022/03/08 10:25:15;;;;;;;11.40;6.60;;;12.40;34.40;;;;;;5069278;28;20407;-55
2022/03/08 10:27:53;;;;;;;11.57;7.00;;;13.00;33.90;;;;;;5069619;28;20384;-57
2022/03/08 10:30:24;;;;;;;11.23;6.53;;;12.90;33.00;;;;;;5070017;28;20930;-55
2022/03/08 10:32:53;;;;;;;11.10;6.30;;;13.00;33.50;;;;;;5069342;28;20372;-55
2022/03/08 10:35:27;;;;;;;12.88;7.20;;;13.00;33.10;;;;;;5069498;28;20411;-55
2022/03/08 10:37:55;;;;;;;13.05;6.30;;;13.30;33.20;;;;;;5069106;28;20780;-56
2022/03/08 10:40:32;;;;;;;12.07;6.10;;;14.10;33.20;;;;;;5069351;28;20412;-55
2022/03/08 10:43:01;;;;;;;13.90;6.03;;;14.90;31.10;;;;;;5068884;28;20403;-55
2022/03/08 10:45:28;;;;;;;11.85;5.40;;;13.50;30.60;;;;;;5069475;28;20407;-53
2022/03/08 10:47:54;;;;;;;10.40;5.75;;;12.90;31.30;;;;;;5068693;28;20411;-54
2022/03/08 10:50:26;;;;;;;10.20;5.40;;;13.10;31.80;;;;;;5069112;28;20915;-54
2022/03/08 10:52:56;;;;;;;9.88;5.38;;;13.60;31.20;;;;;;5068978;28;20384;-54
2022/03/08 10:55:28;;;;;;;9.68;5.20;;;13.40;31.40;;;;;;5069468;28;20411;-54
2022/03/08 10:57:59;;;;;;;10.80;5.20;;;13.40;31.50;;;;;;5068869;28;20390;-54
2022/03/08 11:00:32;;;;;;;10.82;5.80;;;13.10;31.20;;;;;;5069306;28;20833;-56
2022/03/08 11:02:59;;;;;;;10.50;5.80;;;13.60;31.50;;;;;;5068524;28;20502;-55
2022/03/08 11:05:33;;;;;;;9.88;5.18;;;13.60;30.80;;;;;;5069354;28;20408;-54
2022/03/08 11:07:59;;;;;;;10.93;5.60;;;12.80;30.10;;;;;;5068637;28;20471;-55
2022/03/08 11:10:26;;;;;;;10.23;5.50;;;13.70;30.50;;;;;;5069068;28;20376;-55
2022/03/08 11:12:53;;;;;;;9.93;5.75;;;14.30;30.00;;;;;;5068964;28;20418;-53
2022/03/08 11:15:20;;;;;;;11.43;5.18;;;13.70;30.10;;;;;;5069804;28;20956;-54
2022/03/08 11:17:48;;;;;;;9.82;5.43;;;13.60;30.40;;;;;;5068418;28;20392;-54
2022/03/08 11:20:17;;;;;;;9.52;5.25;;;13.60;29.70;;;;;;5069034;28;20462;-56
2022/03/08 11:22:44;;;;;;;9.03;4.97;;;13.40;29.80;;;;;;5068864;28;20411;-57
2022/03/08 11:25:13;;;;;;;9.23;4.85;;;13.00;29.90;;;;;;5069107;28;20430;-54
2022/03/08 11:27:40;;;;;;;9.52;5.10;;;12.50;29.60;;;;;;5069148;28;20467;-55
2022/03/08 11:30:09;;;;;;;11.98;5.40;;;12.10;30.00;;;;;;5068844;28;20896;-56
2022/03/08 11:33:08;;;;;;;10.10;4.60;;;12.20;30.40;;;;;;5069208;28;20390;-53
2022/03/08 11:35:45;;;;;;;8.30;4.70;;;12.60;30.30;;;;;;5069340;28;20379;-55
2022/03/08 11:38:13;;;;;;;10.07;5.05;;;11.80;30.30;;;;;;5069074;28;20849;-56
2022/03/08 11:40:50;;;;;;;10.43;5.35;;;11.60;31.50;;;;;;5069079;28;20884;-55
2022/03/08 11:43:17;;;;;;;10.50;5.00;;;11.20;31.70;;;;;;5069030;28;20500;-56
2022/03/08 11:45:42;;;;;;;12.18;5.53;;;11.10;32.00;;;;;;5067363;28;20731;-57
2022/03/08 11:48:09;;;;;;;10.13;5.57;;;10.70;31.80;;;;;;5068774;28;20442;-55
2022/03/08 11:50:45;;;;;;;9.77;4.60;;;10.20;32.30;;;;;;5068622;28;20399;-55
2022/03/08 11:53:24;;;;;;;8.98;4.13;;;9.70;33.20;;;;;;5069051;28;20380;-56
2022/03/08 11:55:56;;;;;;;8.90;4.63;;;9.80;33.20;;;;;;5068286;28;20372;-55
2022/03/08 11:58:23;;;;;;;9.20;4.53;;;9.80;33.30;;;;;;5069205;28;20466;-55
2022/03/08 12:00:57;;;;;;;9.27;3.92;;;10.00;32.30;;;;;;5068004;28;20861;-55
2022/03/08 12:03:23;;;;;;;10.45;4.50;;;9.60;33.10;;;;;;5068868;28;20499;-55
2022/03/08 12:05:59;;;;;;;10.00;5.10;;;9.70;33.20;;;;;;5068693;28;20582;-56
2022/03/08 12:08:27;;;;;;;9.45;4.00;;;10.00;32.50;;;;;;5072637;28;20383;-55
2022/03/08 12:11:03;;;;;;;8.93;4.60;;;10.40;32.30;;;;;;5071780;28;20380;-55
2022/03/08 12:13:33;;;;;;;8.90;5.05;;;10.20;32.10;;;;;;5072233;28;20441;-55
2022/03/08 12:16:10;;;;;;;10.18;4.70;;;10.30;32.90;;;;;;5071689;28;20387;-57
2022/03/08 12:18:53;;;;;;;10.95;4.80;;;10.40;32.20;;;;;;5072191;28;20395;-55
2022/03/08 12:21:22;;;;;;;7.32;3.80;;;10.40;32.00;;;;;;5072560;28;20403;-55
2022/03/08 12:23:48;;;;;;;8.68;4.40;;;10.70;31.30;;;;;;5071375;28;20505;-56
2022/03/08 12:26:48;;;;;;;8.65;4.50;;;10.40;31.10;;;;;;5072043;28;20403;-55
2022/03/08 12:29:21;;;;;;;10.43;4.82;;;10.20;31.30;;;;;;5071816;28;20795;-56
2022/03/08 12:31:56;;;;;;;9.93;4.40;;;10.20;31.80;;;;;;5071153;28;20885;-56
2022/03/08 12:34:40;;;;;;;9.00;4.75;;;10.20;32.00;;;;;;5071980;28;20380;-56
2022/03/08 12:37:08;;;;;;;10.20;7.90;;;10.20;31.80;;;;;;5071007;28;20470;-56